sensor_id;sensor_type;location;lat;lon;timestamp;pressure;altitude;pressure_sealevel;temperature;humidity
86143;BME280;76799;50.146;22.704;2024-03-17T00:04:19;99493.22;;;9.65;87.67
86143;BME280;76799;50.146;22.704;2024-03-17T00:10:06;99495.03;;;9.64;87.29
86143;BME280;76799;50.146;22.704;2024-03-17T00:15:54;99485.47;;;9.63;88.16
86143;BME280;76799;50.146;22.704;2024-03-17T00:21:41;99484.78;;;9.61;87.58
86143;BME280;76799;50.146;22.704;2024-03-17T00:27:28;99491.88;;;9.61;87.26
86143;BME280;76799;50.146;22.704;2024-03-17T00:33:15;99491.88;;;9.61;87.11
86143;BME280;76799;50.146;22.704;2024-03-17T00:39:02;99478.97;;;9.58;87.36
86143;BME280;76799;50.146;22.704;2024-03-17T00:44:49;99481.94;;;9.55;88.34
86143;BME280;76799;50.146;22.704;2024-03-17T00:50:36;99471.69;;;9.52;87.91
86143;BME280;76799;50.146;22.704;2024-03-17T01:05:08;99469.34;;;9.49;87.86
86143;BME280;76799;50.146;22.704;2024-03-17T01:10:55;99471.34;;;9.47;89.30
86143;BME280;76799;50.146;22.704;2024-03-17T01:16:42;99462.59;;;9.46;87.46
86143;BME280;76799;50.146;22.704;2024-03-17T01:22:29;99470.34;;;9.48;87.80
86143;BME280;76799;50.146;22.704;2024-03-17T01:28:16;99458.44;;;9.44;88.48
86143;BME280;76799;50.146;22.704;2024-03-17T01:34:04;99466.38;;;9.44;88.55
86143;BME280;76799;50.146;22.704;2024-03-17T01:39:51;99464.22;;;9.39;88.65
86143;BME280;76799;50.146;22.704;2024-03-17T01:45:38;99466.34;;;9.36;89.29
86143;BME280;76799;50.146;22.704;2024-03-17T01:51:25;99466.81;;;9.31;89.69
86143;BME280;76799;50.146;22.704;2024-03-17T02:00:37;99471.94;;;9.33;89.37
86143;BME280;76799;50.146;22.704;2024-03-17T02:06:25;99458.91;;;9.31;91.40
86143;BME280;76799;50.146;22.704;2024-03-17T02:12:12;99464.53;;;9.36;91.34
86143;BME280;76799;50.146;22.704;2024-03-17T02:17:59;99464.38;;;9.38;91.96
86143;BME280;76799;50.146;22.704;2024-03-17T02:23:46;99464.38;;;9.38;91.96
86143;BME280;76799;50.146;22.704;2024-03-17T02:29:33;99469.31;;;9.41;92.69
86143;BME280;76799;50.146;22.704;2024-03-17T02:35:26;99464.72;;;9.43;92.09
86143;BME280;76799;50.146;22.704;2024-03-17T02:41:13;99468.19;;;9.43;91.55
86143;BME280;76799;50.146;22.704;2024-03-17T02:47:01;99466.03;;;9.47;92.19
86143;BME280;76799;50.146;22.704;2024-03-17T02:52:36;99464.25;;;9.47;92.07
86143;BME280;76799;50.146;22.704;2024-03-17T03:06:41;99469.22;;;9.50;92.29
86143;BME280;76799;50.146;22.704;2024-03-17T03:12:28;99478.13;;;9.49;92.38
86143;BME280;76799;50.146;22.704;2024-03-17T03:18:15;99476.47;;;9.48;92.47
86143;BME280;76799;50.146;22.704;2024-03-17T03:24:03;99470.88;;;9.51;92.14
86143;BME280;76799;50.146;22.704;2024-03-17T03:29:50;99468.06;;;9.53;92.43
86143;BME280;76799;50.146;22.704;2024-03-17T03:35:37;99473.34;;;9.53;92.10
86143;BME280;76799;50.146;22.704;2024-03-17T03:41:23;99510.38;;;9.53;92.43
86143;BME280;76799;50.146;22.704;2024-03-17T03:47:11;99523.72;;;9.43;88.76
86143;BME280;76799;50.146;22.704;2024-03-17T03:52:59;99540.59;;;9.17;85.66
86143;BME280;76799;50.146;22.704;2024-03-17T03:58:46;99540.06;;;8.88;85.55
86143;BME280;76799;50.146;22.704;2024-03-17T04:03:57;99558.06;;;8.67;84.14
86143;BME280;76799;50.146;22.704;2024-03-17T04:09:45;99561.84;;;8.47;84.45
86143;BME280;76799;50.146;22.704;2024-03-17T04:15:32;99570.88;;;8.27;84.72
86143;BME280;76799;50.146;22.704;2024-03-17T04:21:19;99585.16;;;8.17;84.96
86143;BME280;76799;50.146;22.704;2024-03-17T04:27:14;99588.78;;;8.06;85.05
86143;BME280;76799;50.146;22.704;2024-03-17T04:33:02;99601.66;;;7.92;85.51
86143;BME280;76799;50.146;22.704;2024-03-17T04:38:50;99624.16;;;7.86;85.91
86143;BME280;76799;50.146;22.704;2024-03-17T04:44:37;99627.81;;;7.76;86.58
86143;BME280;76799;50.146;22.704;2024-03-17T04:50:24;99651.00;;;7.72;86.09
86143;BME280;76799;50.146;22.704;2024-03-17T04:56:12;99661.06;;;7.60;85.58
86143;BME280;76799;50.146;22.704;2024-03-17T05:02:00;99667.88;;;7.53;85.87
86143;BME280;76799;50.146;22.704;2024-03-17T05:07:11;99681.22;;;7.42;85.67
86143;BME280;76799;50.146;22.704;2024-03-17T05:16:20;99715.63;;;7.31;86.12
86143;BME280;76799;50.146;22.704;2024-03-17T05:22:09;99736.56;;;7.23;85.29
86143;BME280;76799;50.146;22.704;2024-03-17T05:27:57;99749.47;;;7.16;85.42
86143;BME280;76799;50.146;22.704;2024-03-17T05:33:44;99757.78;;;7.12;85.96
86143;BME280;76799;50.146;22.704;2024-03-17T05:39:31;99770.28;;;7.10;85.71
86143;BME280;76799;50.146;22.704;2024-03-17T05:45:19;99780.81;;;7.10;86.04
86143;BME280;76799;50.146;22.704;2024-03-17T05:50:47;99800.47;;;7.06;85.77
86143;BME280;76799;50.146;22.704;2024-03-17T05:56:15;99796.88;;;7.07;85.64
86143;BME280;76799;50.146;22.704;2024-03-17T06:02:05;99795.22;;;7.06;86.13
86143;BME280;76799;50.146;22.704;2024-03-17T06:11:17;99810.88;;;7.07;85.25
86143;BME280;76799;50.146;22.704;2024-03-17T06:17:04;99808.22;;;7.07;85.28
86143;BME280;76799;50.146;22.704;2024-03-17T06:22:32;99814.34;;;7.08;86.10
86143;BME280;76799;50.146;22.704;2024-03-17T06:28:19;99813.81;;;7.14;85.81
86143;BME280;76799;50.146;22.704;2024-03-17T06:34:06;99815.19;;;7.18;85.64
86143;BME280;76799;50.146;22.704;2024-03-17T06:39:54;99806.88;;;7.32;85.50
86143;BME280;76799;50.146;22.704;2024-03-17T06:45:41;99809.38;;;7.43;85.65
86143;BME280;76799;50.146;22.704;2024-03-17T06:51:09;99817.44;;;7.51;84.24
86143;BME280;76799;50.146;22.704;2024-03-17T06:56:38;99813.81;;;7.52;83.27
86143;BME280;76799;50.146;22.704;2024-03-17T07:02:25;99829.78;;;7.60;84.22
86143;BME280;76799;50.146;22.704;2024-03-17T07:16:57;99842.06;;;7.87;83.01
86143;BME280;76799;50.146;22.704;2024-03-17T07:22:25;99830.97;;;7.93;82.40
86143;BME280;76799;50.146;22.704;2024-03-17T07:28:12;99841.91;;;7.98;81.59
86143;BME280;76799;50.146;22.704;2024-03-17T07:33:40;99836.75;;;8.06;81.16
86143;BME280;76799;50.146;22.704;2024-03-17T07:39:31;99836.75;;;8.06;81.60
86143;BME280;76799;50.146;22.704;2024-03-17T07:45:21;99832.59;;;8.13;81.62
86143;BME280;76799;50.146;22.704;2024-03-17T07:51:10;99831.34;;;8.27;81.88
86143;BME280;76799;50.146;22.704;2024-03-17T07:57:00;99841.44;;;8.41;80.94
86143;BME280;76799;50.146;22.704;2024-03-17T08:02:48;99834.72;;;8.46;80.38
86143;BME280;76799;50.146;22.704;2024-03-17T08:11:59;99836.88;;;8.33;76.43
86143;BME280;76799;50.146;22.704;2024-03-17T08:17:47;99841.72;;;8.38;76.86
86143;BME280;76799;50.146;22.704;2024-03-17T08:23:34;99844.19;;;8.49;73.84
86143;BME280;76799;50.146;22.704;2024-03-17T08:29:25;99844.28;;;8.57;72.88
86143;BME280;76799;50.146;22.704;2024-03-17T08:35:13;99840.22;;;8.62;72.32
86143;BME280;76799;50.146;22.704;2024-03-17T08:41:08;99832.19;;;8.64;71.48
86143;BME280;76799;50.146;22.704;2024-03-17T08:46:55;99821.94;;;8.78;72.18
86143;BME280;76799;50.146;22.704;2024-03-17T08:52:43;99805.63;;;9.09;69.33
86143;BME280;76799;50.146;22.704;2024-03-17T08:58:30;99807.59;;;9.25;69.31
86143;BME280;76799;50.146;22.704;2024-03-17T09:04:17;99812.13;;;9.15;67.72
86143;BME280;76799;50.146;22.704;2024-03-17T09:18:51;99816.91;;;8.85;69.80
86143;BME280;76799;50.146;22.704;2024-03-17T09:24:38;99814.50;;;8.91;69.83
86143;BME280;76799;50.146;22.704;2024-03-17T09:30:25;99811.16;;;9.16;67.94
86143;BME280;76799;50.146;22.704;2024-03-17T09:36:13;99798.09;;;9.32;65.72
86143;BME280;76799;50.146;22.704;2024-03-17T09:42:02;99803.81;;;9.45;65.92
86143;BME280;76799;50.146;22.704;2024-03-17T09:47:51;99803.91;;;9.53;63.44
86143;BME280;76799;50.146;22.704;2024-03-17T09:53:38;99804.28;;;9.58;64.07
86143;BME280;76799;50.146;22.704;2024-03-17T09:59:25;99801.31;;;9.78;61.99
86143;BME280;76799;50.146;22.704;2024-03-17T10:05:19;99790.78;;;9.86;61.10
86143;BME280;76799;50.146;22.704;2024-03-17T10:14:29;99793.94;;;9.90;58.71
86143;BME280;76799;50.146;22.704;2024-03-17T10:20:18;99801.75;;;9.91;59.52
86143;BME280;76799;50.146;22.704;2024-03-17T10:26:13;99803.41;;;9.92;59.19
86143;BME280;76799;50.146;22.704;2024-03-17T10:32:14;99790.06;;;10.19;59.47
86143;BME280;76799;50.146;22.704;2024-03-17T10:38:04;99793.69;;;10.18;58.74
86143;BME280;76799;50.146;22.704;2024-03-17T10:43:51;99793.03;;;10.16;58.53
86143;BME280;76799;50.146;22.704;2024-03-17T10:49:40;99781.94;;;10.21;59.87
86143;BME280;76799;50.146;22.704;2024-03-17T10:55:32;99781.09;;;10.45;57.51
86143;BME280;76799;50.146;22.704;2024-03-17T11:05:43;99779.78;;;10.49;58.85
86143;BME280;76799;50.146;22.704;2024-03-17T11:20:25;99770.81;;;10.92;52.50
86143;BME280;76799;50.146;22.704;2024-03-17T11:26:26;99789.03;;;10.45;53.70
86143;BME280;76799;50.146;22.704;2024-03-17T11:32:25;99780.28;;;10.20;55.03
86143;BME280;76799;50.146;22.704;2024-03-17T11:44:42;99772.34;;;9.77;53.76
86143;BME280;76799;50.146;22.704;2024-03-17T11:50:29;99772.66;;;9.74;55.27
86143;BME280;76799;50.146;22.704;2024-03-17T11:56:23;99772.22;;;9.61;57.29
86143;BME280;76799;50.146;22.704;2024-03-17T12:01:51;99770.81;;;9.66;55.88
86143;BME280;76799;50.146;22.704;2024-03-17T12:07:42;99778.00;;;9.82;55.73
86143;BME280;76799;50.146;22.704;2024-03-17T12:18:49;99768.22;;;9.74;54.02
86143;BME280;76799;50.146;22.704;2024-03-17T12:24:36;99769.91;;;9.58;53.32
86143;BME280;76799;50.146;22.704;2024-03-17T12:30:45;99764.66;;;9.66;54.12
86143;BME280;76799;50.146;22.704;2024-03-17T12:36:33;99771.00;;;9.73;55.41
86143;BME280;76799;50.146;22.704;2024-03-17T12:42:24;99774.50;;;9.73;55.03
86143;BME280;76799;50.146;22.704;2024-03-17T12:48:13;99770.25;;;9.63;55.02
86143;BME280;76799;50.146;22.704;2024-03-17T12:54:13;99765.44;;;9.41;55.07
86143;BME280;76799;50.146;22.704;2024-03-17T13:00:01;99775.88;;;9.25;55.02
86143;BME280;76799;50.146;22.704;2024-03-17T13:06:09;99791.81;;;9.15;57.14
86143;BME280;76799;50.146;22.704;2024-03-17T13:11:56;99792.13;;;9.12;57.91
86143;BME280;76799;50.146;22.704;2024-03-17T13:17:12;99805.38;;;9.03;57.23
86143;BME280;76799;50.146;22.704;2024-03-17T13:23:02;99796.94;;;8.99;58.10
86143;BME280;76799;50.146;22.704;2024-03-17T13:28:50;99795.72;;;8.94;56.37
86143;BME280;76799;50.146;22.704;2024-03-17T13:34:25;99803.94;;;8.91;56.56
86143;BME280;76799;50.146;22.704;2024-03-17T13:40:13;99805.69;;;9.00;57.48
86143;BME280;76799;50.146;22.704;2024-03-17T13:46:03;99801.84;;;8.94;56.52
86143;BME280;76799;50.146;22.704;2024-03-17T13:51:50;99800.69;;;8.80;57.02
86143;BME280;76799;50.146;22.704;2024-03-17T13:57:37;99795.41;;;8.80;56.70
86143;BME280;76799;50.146;22.704;2024-03-17T14:03:24;99792.59;;;8.81;56.42
86143;BME280;76799;50.146;22.704;2024-03-17T14:09:12;99790.94;;;8.80;56.06
86143;BME280;76799;50.146;22.704;2024-03-17T14:14:59;99791.38;;;8.76;56.98
86143;BME280;76799;50.146;22.704;2024-03-17T14:47:50;99794.44;;;8.44;58.78
86143;BME280;76799;50.146;22.704;2024-03-17T14:53:38;99791.56;;;8.38;59.03
86143;BME280;76799;50.146;22.704;2024-03-17T15:06:14;99787.34;;;8.18;60.36
86143;BME280;76799;50.146;22.704;2024-03-17T15:12:02;99785.78;;;8.15;59.49
86143;BME280;76799;50.146;22.704;2024-03-17T15:17:50;99781.75;;;8.11;59.14
86143;BME280;76799;50.146;22.704;2024-03-17T15:23:37;99778.72;;;8.06;60.04
86143;BME280;76799;50.146;22.704;2024-03-17T15:38:09;99783.47;;;7.93;59.98
86143;BME280;76799;50.146;22.704;2024-03-17T15:43:57;99778.38;;;7.82;60.41
86143;BME280;76799;50.146;22.704;2024-03-17T15:49:45;99778.25;;;7.74;60.22
86143;BME280;76799;50.146;22.704;2024-03-17T15:55:32;99775.75;;;7.73;61.11
86143;BME280;76799;50.146;22.704;2024-03-17T16:01:20;99775.19;;;7.69;61.34
86143;BME280;76799;50.146;22.704;2024-03-17T16:07:07;99785.75;;;7.69;61.25
86143;BME280;76799;50.146;22.704;2024-03-17T16:12:54;99787.00;;;7.65;60.53
86143;BME280;76799;50.146;22.704;2024-03-17T16:18:41;99777.59;;;7.54;62.03
86143;BME280;76799;50.146;22.704;2024-03-17T16:24:28;99779.00;;;7.48;62.61
86143;BME280;76799;50.146;22.704;2024-03-17T16:33:41;99783.44;;;7.38;62.67
86143;BME280;76799;50.146;22.704;2024-03-17T16:39:27;99787.16;;;7.26;62.77
86143;BME280;76799;50.146;22.704;2024-03-17T16:45:18;99786.06;;;7.19;63.39
86143;BME280;76799;50.146;22.704;2024-03-17T16:51:05;99787.75;;;7.11;63.26
86143;BME280;76799;50.146;22.704;2024-03-17T16:56:34;99788.28;;;7.05;63.76
86143;BME280;76799;50.146;22.704;2024-03-17T17:02:22;99794.63;;;7.02;63.29
86143;BME280;76799;50.146;22.704;2024-03-17T17:24:58;99792.56;;;6.96;65.36
86143;BME280;76799;50.146;22.704;2024-03-17T17:36:20;99794.66;;;6.93;64.32
86143;BME280;76799;50.146;22.704;2024-03-17T17:42:07;99793.94;;;6.91;64.38
86143;BME280;76799;50.146;22.704;2024-03-17T17:47:55;99802.13;;;6.88;64.99
86143;BME280;76799;50.146;22.704;2024-03-17T17:53:43;99801.41;;;6.86;65.14
86143;BME280;76799;50.146;22.704;2024-03-17T17:59:30;99799.59;;;6.86;65.41
86143;BME280;76799;50.146;22.704;2024-03-17T18:04:59;99797.13;;;6.85;64.94
86143;BME280;76799;50.146;22.704;2024-03-17T18:10:46;99800.72;;;6.84;64.58
86143;BME280;76799;50.146;22.704;2024-03-17T18:19:26;99818.44;;;6.82;64.75
86143;BME280;76799;50.146;22.704;2024-03-17T18:24:54;99812.75;;;6.77;65.51
86143;BME280;76799;50.146;22.704;2024-03-17T18:30:22;99803.72;;;6.70;65.80
86143;BME280;76799;50.146;22.704;2024-03-17T18:46:12;99793.16;;;6.51;66.47
86143;BME280;76799;50.146;22.704;2024-03-17T18:51:59;99795.19;;;6.47;67.17
86143;BME280;76799;50.146;22.704;2024-03-17T18:57:47;99788.94;;;6.39;67.48
86143;BME280;76799;50.146;22.704;2024-03-17T19:03:37;99794.47;;;6.36;67.66
86143;BME280;76799;50.146;22.704;2024-03-17T19:21:43;99796.75;;;6.20;71.22
86143;BME280;76799;50.146;22.704;2024-03-17T19:27:38;99802.28;;;6.17;71.40
86143;BME280;76799;50.146;22.704;2024-03-17T19:33:26;99803.19;;;6.07;71.14
86143;BME280;76799;50.146;22.704;2024-03-17T19:39:14;99818.91;;;5.97;71.33
86143;BME280;76799;50.146;22.704;2024-03-17T19:45:03;99813.03;;;5.84;72.09
86143;BME280;76799;50.146;22.704;2024-03-17T19:50:51;99820.69;;;5.76;73.27
86143;BME280;76799;50.146;22.704;2024-03-17T19:56:39;99816.47;;;5.64;72.92
86143;BME280;76799;50.146;22.704;2024-03-17T20:02:26;99809.78;;;5.60;73.30
86143;BME280;76799;50.146;22.704;2024-03-17T20:07:55;99813.88;;;5.53;73.62
86143;BME280;76799;50.146;22.704;2024-03-17T20:13:29;99808.03;;;5.50;74.17
86143;BME280;76799;50.146;22.704;2024-03-17T20:38:26;99791.06;;;5.33;74.53
86143;BME280;76799;50.146;22.704;2024-03-17T20:43:54;99793.53;;;5.35;74.94
86143;BME280;76799;50.146;22.704;2024-03-17T20:49:22;99786.75;;;5.32;74.88
86143;BME280;76799;50.146;22.704;2024-03-17T20:54:51;99777.47;;;5.28;75.29
86143;BME280;76799;50.146;22.704;2024-03-17T21:00:21;99777.47;;;5.28;74.69
86143;BME280;76799;50.146;22.704;2024-03-17T21:06:13;99778.28;;;5.29;75.04
86143;BME280;76799;50.146;22.704;2024-03-17T21:12:03;99773.75;;;5.31;75.07
86143;BME280;76799;50.146;22.704;2024-03-17T21:17:50;99763.84;;;5.34;75.44
86143;BME280;76799;50.146;22.704;2024-03-17T21:23:38;99761.22;;;5.34;75.62
86143;BME280;76799;50.146;22.704;2024-03-17T21:29:25;99756.66;;;5.36;75.44
86143;BME280;76799;50.146;22.704;2024-03-17T21:45:33;99743.53;;;5.36;75.59
86143;BME280;76799;50.146;22.704;2024-03-17T21:51:01;99746.72;;;5.40;76.05
86143;BME280;76799;50.146;22.704;2024-03-17T21:56:49;99745.50;;;5.44;76.65
86143;BME280;76799;50.146;22.704;2024-03-17T22:02:17;99736.09;;;5.41;76.81
86143;BME280;76799;50.146;22.704;2024-03-17T22:07:45;99739.81;;;5.39;77.33
86143;BME280;76799;50.146;22.704;2024-03-17T22:13:13;99726.09;;;5.35;77.70
86143;BME280;76799;50.146;22.704;2024-03-17T22:22:06;99714.91;;;5.33;78.44
86143;BME280;76799;50.146;22.704;2024-03-17T22:27:41;99736.97;;;5.31;78.79
86143;BME280;76799;50.146;22.704;2024-03-17T22:33:09;99751.78;;;5.11;77.88
86143;BME280;76799;50.146;22.704;2024-03-17T22:38:37;99740.19;;;4.83;78.83
86143;BME280;76799;50.146;22.704;2024-03-17T22:44:06;99740.97;;;4.63;79.65
86143;BME280;76799;50.146;22.704;2024-03-17T22:49:34;99723.97;;;4.46;80.66
86143;BME280;76799;50.146;22.704;2024-03-17T22:55:03;99706.81;;;4.42;79.91
86143;BME280;76799;50.146;22.704;2024-03-17T23:00:52;99716.34;;;4.43;80.16
86143;BME280;76799;50.146;22.704;2024-03-17T23:06:40;99710.50;;;4.40;80.31
86143;BME280;76799;50.146;22.704;2024-03-17T23:12:08;99708.97;;;4.37;80.55
86143;BME280;76799;50.146;22.704;2024-03-17T23:17:57;99712.09;;;4.31;80.14
86143;BME280;76799;50.146;22.704;2024-03-17T23:23:44;99713.03;;;4.30;80.53
86143;BME280;76799;50.146;22.704;2024-03-17T23:29:31;99716.00;;;4.26;80.09
86143;BME280;76799;50.146;22.704;2024-03-17T23:35:18;99703.38;;;4.20;80.97
86143;BME280;76799;50.146;22.704;2024-03-17T23:44:25;99687.63;;;4.31;80.88
86143;BME280;76799;50.146;22.704;2024-03-17T23:50:13;99688.97;;;4.25;80.95
86143;BME280;76799;50.146;22.704;2024-03-17T23:56:00;99686.22;;;4.27;81.07
